Terminal Aerodrome Forecast
Issued by NWS

Home | Current Version | Previous Version | Text Only | Print | Product List | Glossary On
Versions: 1 2 3 4 5 6 7 8 9 10 11 12 13 14
346
FTUS45 KVEF 231729
TAFHND
TAF
KHND 231729Z 2318/2418 21020G30KT P6SM FEW040 SCT090 BKN150
     FM232100 22017G27KT P6SM FEW040 SCT090 BKN150
     FM240200 22012KT P6SM VCSH SCT040 BKN090
     FM241000 20008KT P6SM FEW040 BKN090
     FM241600 20007KT P6SM FEW040 SCT090 SCT150=

USA.gov is the U.S. government's official web portal to all federal, state and local government web resources and services.